sensor_id;sensor_type;location;lat;lon;timestamp;pressure;altitude;pressure_sealevel;temperature;humidity
6393;BME280;3229;42.674;23.282;2023-02-20T00:02:03;94953.13;;;14.36;49.11
6393;BME280;3229;42.674;23.282;2023-02-20T00:04:30;94932.81;;;14.24;49.39
6393;BME280;3229;42.674;23.282;2023-02-20T00:06:56;94963.59;;;14.34;49.18
6393;BME280;3229;42.674;23.282;2023-02-20T00:09:23;94949.25;;;14.31;49.39
6393;BME280;3229;42.674;23.282;2023-02-20T00:11:50;94938.59;;;14.18;49.72
6393;BME280;3229;42.674;23.282;2023-02-20T00:14:17;94951.97;;;14.30;49.51
6393;BME280;3229;42.674;23.282;2023-02-20T00:16:45;94951.31;;;14.28;49.72
6393;BME280;3229;42.674;23.282;2023-02-20T00:19:14;94948.91;;;14.26;49.78
6393;BME280;3229;42.674;23.282;2023-02-20T00:21:44;94942.16;;;14.25;49.88
6393;BME280;3229;42.674;23.282;2023-02-20T00:24:11;94949.38;;;14.22;49.83
6393;BME280;3229;42.674;23.282;2023-02-20T00:26:38;94939.69;;;14.16;49.80
6393;BME280;3229;42.674;23.282;2023-02-20T00:29:13;94948.06;;;14.18;49.92
6393;BME280;3229;42.674;23.282;2023-02-20T00:31:40;94949.97;;;14.16;50.06
6393;BME280;3229;42.674;23.282;2023-02-20T00:34:07;94941.44;;;14.15;50.02
6393;BME280;3229;42.674;23.282;2023-02-20T00:36:35;94941.78;;;14.12;50.16
6393;BME280;3229;42.674;23.282;2023-02-20T00:39:02;94936.63;;;14.12;50.29
6393;BME280;3229;42.674;23.282;2023-02-20T00:41:29;94933.38;;;14.10;50.06
6393;BME280;3229;42.674;23.282;2023-02-20T00:43:55;94929.38;;;14.08;50.26
6393;BME280;3229;42.674;23.282;2023-02-20T00:46:22;94944.13;;;14.05;50.26
6393;BME280;3229;42.674;23.282;2023-02-20T00:48:49;94942.81;;;14.01;50.28
6393;BME280;3229;42.674;23.282;2023-02-20T00:51:16;94955.69;;;14.01;50.39
6393;BME280;3229;42.674;23.282;2023-02-20T00:53:44;94955.00;;;13.91;50.70
6393;BME280;3229;42.674;23.282;2023-02-20T00:56:11;94964.81;;;13.96;50.64
6393;BME280;3229;42.674;23.282;2023-02-20T00:58:38;94955.78;;;13.92;50.61
6393;BME280;3229;42.674;23.282;2023-02-20T01:01:05;94964.59;;;13.89;50.78
6393;BME280;3229;42.674;23.282;2023-02-20T01:03:32;94971.00;;;13.85;50.75
6393;BME280;3229;42.674;23.282;2023-02-20T01:05:59;94975.78;;;13.80;50.92
6393;BME280;3229;42.674;23.282;2023-02-20T01:08:26;94983.50;;;13.80;50.79
6393;BME280;3229;42.674;23.282;2023-02-20T01:10:54;94991.50;;;13.77;50.89
6393;BME280;3229;42.674;23.282;2023-02-20T01:13:21;94984.94;;;13.74;51.25
6393;BME280;3229;42.674;23.282;2023-02-20T01:15:48;94980.88;;;13.72;50.93
6393;BME280;3229;42.674;23.282;2023-02-20T01:18:14;94980.38;;;13.68;51.15
6393;BME280;3229;42.674;23.282;2023-02-20T01:20:41;94981.31;;;13.67;51.27
6393;BME280;3229;42.674;23.282;2023-02-20T01:23:08;94982.59;;;13.63;51.44
6393;BME280;3229;42.674;23.282;2023-02-20T01:25:35;94978.41;;;13.62;51.38
6393;BME280;3229;42.674;23.282;2023-02-20T01:28:04;94986.28;;;13.61;51.27
6393;BME280;3229;42.674;23.282;2023-02-20T01:30:30;94986.84;;;13.54;51.28
6393;BME280;3229;42.674;23.282;2023-02-20T01:32:57;94992.34;;;13.60;51.35
6393;BME280;3229;42.674;23.282;2023-02-20T01:35:24;95001.81;;;13.59;51.56
6393;BME280;3229;42.674;23.282;2023-02-20T01:37:55;95009.41;;;13.61;51.51
6393;BME280;3229;42.674;23.282;2023-02-20T01:40:22;95011.00;;;13.62;51.55
6393;BME280;3229;42.674;23.282;2023-02-20T01:42:49;95016.94;;;13.62;51.62
6393;BME280;3229;42.674;23.282;2023-02-20T01:45:32;95020.84;;;13.66;51.63
6393;BME280;3229;42.674;23.282;2023-02-20T01:47:59;95025.81;;;13.68;51.53
6393;BME280;3229;42.674;23.282;2023-02-20T01:50:28;95007.84;;;13.68;51.67
6393;BME280;3229;42.674;23.282;2023-02-20T01:53:00;95006.75;;;13.70;51.64
6393;BME280;3229;42.674;23.282;2023-02-20T01:55:30;95004.31;;;13.69;51.56
6393;BME280;3229;42.674;23.282;2023-02-20T01:58:03;95024.44;;;13.73;51.82
6393;BME280;3229;42.674;23.282;2023-02-20T02:00:33;95037.94;;;13.75;51.67
6393;BME280;3229;42.674;23.282;2023-02-20T02:03:04;95038.75;;;13.76;51.77
6393;BME280;3229;42.674;23.282;2023-02-20T02:05:32;95035.38;;;13.75;51.73
6393;BME280;3229;42.674;23.282;2023-02-20T02:08:02;95025.25;;;13.74;52.17
6393;BME280;3229;42.674;23.282;2023-02-20T02:10:36;95029.88;;;13.70;52.07
6393;BME280;3229;42.674;23.282;2023-02-20T02:13:05;95038.47;;;13.79;51.98
6393;BME280;3229;42.674;23.282;2023-02-20T02:15:33;95036.84;;;13.78;52.17
6393;BME280;3229;42.674;23.282;2023-02-20T02:18:27;95020.63;;;13.77;52.06
6393;BME280;3229;42.674;23.282;2023-02-20T02:21:39;95032.00;;;13.75;52.31
6393;BME280;3229;42.674;23.282;2023-02-20T02:24:52;95034.56;;;13.75;52.19
6393;BME280;3229;42.674;23.282;2023-02-20T02:27:48;95021.19;;;13.71;52.33
6393;BME280;3229;42.674;23.282;2023-02-20T02:30:40;95038.84;;;13.66;52.38
6393;BME280;3229;42.674;23.282;2023-02-20T02:33:28;95035.47;;;13.66;52.50
6393;BME280;3229;42.674;23.282;2023-02-20T02:36:38;95056.31;;;13.63;52.70
6393;BME280;3229;42.674;23.282;2023-02-20T02:39:14;95061.88;;;13.58;52.36
6393;BME280;3229;42.674;23.282;2023-02-20T02:41:46;95058.16;;;13.52;52.88
6393;BME280;3229;42.674;23.282;2023-02-20T02:44:19;95054.09;;;13.50;52.52
6393;BME280;3229;42.674;23.282;2023-02-20T02:46:54;95058.88;;;13.45;52.68
6393;BME280;3229;42.674;23.282;2023-02-20T02:49:25;95059.97;;;13.42;52.79
6393;BME280;3229;42.674;23.282;2023-02-20T02:51:56;95059.59;;;13.37;52.78
6393;BME280;3229;42.674;23.282;2023-02-20T02:54:26;95061.34;;;13.37;52.52
6393;BME280;3229;42.674;23.282;2023-02-20T02:57:14;95064.09;;;13.35;52.69
6393;BME280;3229;42.674;23.282;2023-02-20T02:59:40;95059.38;;;13.30;52.90
6393;BME280;3229;42.674;23.282;2023-02-20T03:02:12;95052.91;;;13.26;52.87
6393;BME280;3229;42.674;23.282;2023-02-20T03:04:41;95036.03;;;13.24;53.01
6393;BME280;3229;42.674;23.282;2023-02-20T03:07:14;95052.41;;;13.23;53.25
6393;BME280;3229;42.674;23.282;2023-02-20T03:09:45;95044.81;;;13.21;52.98
6393;BME280;3229;42.674;23.282;2023-02-20T03:12:14;95038.63;;;13.14;52.93
6393;BME280;3229;42.674;23.282;2023-02-20T03:14:46;95039.28;;;13.16;53.09
6393;BME280;3229;42.674;23.282;2023-02-20T03:17:37;95052.28;;;13.15;53.15
6393;BME280;3229;42.674;23.282;2023-02-20T03:20:08;95060.94;;;13.14;53.38
6393;BME280;3229;42.674;23.282;2023-02-20T03:22:40;95067.16;;;13.11;53.21
6393;BME280;3229;42.674;23.282;2023-02-20T03:25:11;95073.69;;;13.05;52.81
6393;BME280;3229;42.674;23.282;2023-02-20T03:27:43;95078.81;;;13.05;52.99
6393;BME280;3229;42.674;23.282;2023-02-20T03:30:16;95090.84;;;13.05;53.19
6393;BME280;3229;42.674;23.282;2023-02-20T03:32:46;95086.97;;;13.01;53.29
6393;BME280;3229;42.674;23.282;2023-02-20T03:35:34;95092.22;;;12.99;53.29
6393;BME280;3229;42.674;23.282;2023-02-20T03:38:22;95100.06;;;12.98;53.33
6393;BME280;3229;42.674;23.282;2023-02-20T03:41:08;95102.91;;;12.95;53.45
6393;BME280;3229;42.674;23.282;2023-02-20T03:43:54;95088.88;;;12.89;53.34
6393;BME280;3229;42.674;23.282;2023-02-20T03:46:22;95099.16;;;12.89;53.47
6393;BME280;3229;42.674;23.282;2023-02-20T03:48:53;95101.88;;;12.88;53.50
6393;BME280;3229;42.674;23.282;2023-02-20T03:51:22;95076.00;;;12.71;53.34
6393;BME280;3229;42.674;23.282;2023-02-20T03:54:08;95098.94;;;12.83;53.45
6393;BME280;3229;42.674;23.282;2023-02-20T03:56:37;95104.19;;;12.81;53.56
6393;BME280;3229;42.674;23.282;2023-02-20T03:59:11;95121.34;;;12.80;53.60
6393;BME280;3229;42.674;23.282;2023-02-20T04:01:40;95127.59;;;12.78;53.47
6393;BME280;3229;42.674;23.282;2023-02-20T04:04:13;95125.16;;;12.76;53.57
6393;BME280;3229;42.674;23.282;2023-02-20T04:06:43;95091.19;;;12.55;53.44
6393;BME280;3229;42.674;23.282;2023-02-20T04:09:16;95136.22;;;12.77;53.56
6393;BME280;3229;42.674;23.282;2023-02-20T04:11:47;95134.44;;;12.77;53.41
6393;BME280;3229;42.674;23.282;2023-02-20T04:14:17;95121.63;;;12.77;53.47
6393;BME280;3229;42.674;23.282;2023-02-20T04:16:49;95124.06;;;12.79;53.45
6393;BME280;3229;42.674;23.282;2023-02-20T04:19:17;95085.50;;;12.61;53.34
6393;BME280;3229;42.674;23.282;2023-02-20T04:21:48;95120.13;;;12.85;53.31
6393;BME280;3229;42.674;23.282;2023-02-20T04:24:20;95109.31;;;12.81;53.22
6393;BME280;3229;42.674;23.282;2023-02-20T04:26:49;95123.22;;;12.88;53.26
6393;BME280;3229;42.674;23.282;2023-02-20T04:29:15;95128.19;;;12.90;53.08
6393;BME280;3229;42.674;23.282;2023-02-20T04:31:42;95139.28;;;12.90;53.13
6393;BME280;3229;42.674;23.282;2023-02-20T04:34:09;95143.34;;;12.93;53.39
6393;BME280;3229;42.674;23.282;2023-02-20T04:36:36;95135.63;;;13.20;80.65
6393;BME280;3229;42.674;23.282;2023-02-20T04:39:03;95143.53;;;13.64;76.17
6393;BME280;3229;42.674;23.282;2023-02-20T04:41:31;95130.47;;;13.75;71.98
6393;BME280;3229;42.674;23.282;2023-02-20T04:43:58;95130.47;;;13.75;72.68
6393;BME280;3229;42.674;23.282;2023-02-20T04:46:38;95129.16;;;13.71;72.19
6393;BME280;3229;42.674;23.282;2023-02-20T04:49:05;95130.41;;;13.67;71.29
6393;BME280;3229;42.674;23.282;2023-02-20T04:51:32;95131.00;;;13.61;69.91
6393;BME280;3229;42.674;23.282;2023-02-20T04:53:59;95124.66;;;13.55;68.54
6393;BME280;3229;42.674;23.282;2023-02-20T04:56:25;95132.94;;;13.49;67.73
6393;BME280;3229;42.674;23.282;2023-02-20T04:58:54;95133.13;;;13.38;66.65
6393;BME280;3229;42.674;23.282;2023-02-20T05:01:20;95150.31;;;13.38;65.64
6393;BME280;3229;42.674;23.282;2023-02-20T05:03:47;95153.31;;;13.33;65.06
6393;BME280;3229;42.674;23.282;2023-02-20T05:06:14;95152.94;;;13.28;64.13
6393;BME280;3229;42.674;23.282;2023-02-20T05:08:41;95163.66;;;13.23;63.61
6393;BME280;3229;42.674;23.282;2023-02-20T05:11:07;95168.22;;;13.20;62.90
6393;BME280;3229;42.674;23.282;2023-02-20T05:13:34;95131.84;;;12.97;62.14
6393;BME280;3229;42.674;23.282;2023-02-20T05:16:03;95166.50;;;13.11;61.78
6393;BME280;3229;42.674;23.282;2023-02-20T05:18:30;95179.63;;;13.07;61.43
6393;BME280;3229;42.674;23.282;2023-02-20T05:20:57;95166.00;;;12.97;60.91
6393;BME280;3229;42.674;23.282;2023-02-20T05:23:41;95182.91;;;13.00;60.52
6393;BME280;3229;42.674;23.282;2023-02-20T05:26:09;95178.69;;;12.99;60.18
6393;BME280;3229;42.674;23.282;2023-02-20T05:28:37;95194.25;;;12.97;59.83
6393;BME280;3229;42.674;23.282;2023-02-20T05:31:06;95190.06;;;12.96;59.67
6393;BME280;3229;42.674;23.282;2023-02-20T05:33:33;95191.03;;;12.95;59.17
6393;BME280;3229;42.674;23.282;2023-02-20T05:36:00;95198.59;;;12.97;58.93
6393;BME280;3229;42.674;23.282;2023-02-20T05:38:27;95205.19;;;12.99;58.77
6393;BME280;3229;42.674;23.282;2023-02-20T05:40:53;95204.09;;;13.02;58.40
6393;BME280;3229;42.674;23.282;2023-02-20T05:43:20;95188.84;;;12.91;58.25
6393;BME280;3229;42.674;23.282;2023-02-20T05:45:47;95212.06;;;13.09;57.83
6393;BME280;3229;42.674;23.282;2023-02-20T05:48:15;95206.50;;;13.13;57.69
6393;BME280;3229;42.674;23.282;2023-02-20T05:50:42;95208.66;;;13.18;57.30
6393;BME280;3229;42.674;23.282;2023-02-20T05:53:09;95193.38;;;13.26;57.43
6393;BME280;3229;42.674;23.282;2023-02-20T05:55:36;95193.13;;;13.74;77.83
6393;BME280;3229;42.674;23.282;2023-02-20T05:58:02;95200.56;;;14.31;78.98
6393;BME280;3229;42.674;23.282;2023-02-20T06:00:29;95197.78;;;14.60;74.51
6393;BME280;3229;42.674;23.282;2023-02-20T06:02:56;95196.88;;;14.69;71.23
6393;BME280;3229;42.674;23.282;2023-02-20T06:05:24;95201.28;;;14.77;69.35
6393;BME280;3229;42.674;23.282;2023-02-20T06:07:52;95205.19;;;14.81;67.94
6393;BME280;3229;42.674;23.282;2023-02-20T06:10:19;95176.06;;;14.63;66.67
6393;BME280;3229;42.674;23.282;2023-02-20T06:12:46;95221.63;;;14.88;65.86
6393;BME280;3229;42.674;23.282;2023-02-20T06:15:13;95222.94;;;14.92;64.91
6393;BME280;3229;42.674;23.282;2023-02-20T06:17:40;95232.66;;;14.98;64.02
6393;BME280;3229;42.674;23.282;2023-02-20T06:20:07;95232.03;;;15.04;63.38
6393;BME280;3229;42.674;23.282;2023-02-20T06:22:35;95220.19;;;15.12;62.16
6393;BME280;3229;42.674;23.282;2023-02-20T06:25:02;95209.25;;;15.18;61.53
6393;BME280;3229;42.674;23.282;2023-02-20T06:27:29;95218.84;;;15.34;60.48
6393;BME280;3229;42.674;23.282;2023-02-20T06:29:56;95221.97;;;15.53;59.36
6393;BME280;3229;42.674;23.282;2023-02-20T06:32:23;95213.88;;;15.74;58.80
6393;BME280;3229;42.674;23.282;2023-02-20T06:34:49;95208.13;;;15.97;58.39
6393;BME280;3229;42.674;23.282;2023-02-20T06:37:16;95244.47;;;16.28;57.85
6393;BME280;3229;42.674;23.282;2023-02-20T06:39:44;95231.59;;;16.61;57.56
6393;BME280;3229;42.674;23.282;2023-02-20T06:42:13;95244.66;;;17.00;57.23
6393;BME280;3229;42.674;23.282;2023-02-20T06:44:41;95234.31;;;17.24;56.70
6393;BME280;3229;42.674;23.282;2023-02-20T06:47:07;95236.66;;;17.42;56.27
6393;BME280;3229;42.674;23.282;2023-02-20T06:49:34;95243.59;;;17.58;55.48
6393;BME280;3229;42.674;23.282;2023-02-20T06:52:02;95232.56;;;17.64;54.96
6393;BME280;3229;42.674;23.282;2023-02-20T06:54:29;95241.78;;;17.75;54.59
6393;BME280;3229;42.674;23.282;2023-02-20T06:56:57;95243.84;;;17.79;53.86
6393;BME280;3229;42.674;23.282;2023-02-20T06:59:24;95245.28;;;17.82;53.47
6393;BME280;3229;42.674;23.282;2023-02-20T07:01:51;95252.50;;;17.95;53.00
6393;BME280;3229;42.674;23.282;2023-02-20T07:04:20;95257.28;;;18.14;52.85
6393;BME280;3229;42.674;23.282;2023-02-20T07:06:47;95265.00;;;18.45;52.04
6393;BME280;3229;42.674;23.282;2023-02-20T07:09:14;95261.31;;;18.86;51.61
6393;BME280;3229;42.674;23.282;2023-02-20T07:11:41;95260.91;;;19.35;51.25
6393;BME280;3229;42.674;23.282;2023-02-20T07:14:09;95261.38;;;19.83;50.74
6393;BME280;3229;42.674;23.282;2023-02-20T07:16:36;95269.56;;;20.37;49.82
6393;BME280;3229;42.674;23.282;2023-02-20T07:19:03;95270.97;;;20.76;49.08
6393;BME280;3229;42.674;23.282;2023-02-20T07:21:30;95275.13;;;21.20;48.31
6393;BME280;3229;42.674;23.282;2023-02-20T07:23:57;95248.19;;;21.56;47.74
6393;BME280;3229;42.674;23.282;2023-02-20T07:26:25;95279.25;;;22.05;47.18
6393;BME280;3229;42.674;23.282;2023-02-20T07:28:54;95274.19;;;22.32;46.38
6393;BME280;3229;42.674;23.282;2023-02-20T07:31:24;95281.06;;;22.46;46.18
6393;BME280;3229;42.674;23.282;2023-02-20T07:33:50;95278.66;;;22.58;45.58
6393;BME280;3229;42.674;23.282;2023-02-20T07:36:17;95279.06;;;22.61;45.67
6393;BME280;3229;42.674;23.282;2023-02-20T07:38:52;95274.47;;;22.63;45.22
6393;BME280;3229;42.674;23.282;2023-02-20T07:41:19;95277.88;;;22.64;45.00
6393;BME280;3229;42.674;23.282;2023-02-20T07:43:46;95262.63;;;22.54;44.86
6393;BME280;3229;42.674;23.282;2023-02-20T07:46:13;95281.47;;;22.56;44.44
6393;BME280;3229;42.674;23.282;2023-02-20T07:48:41;95286.09;;;22.61;44.07
6393;BME280;3229;42.674;23.282;2023-02-20T07:51:08;95287.50;;;22.70;43.90
6393;BME280;3229;42.674;23.282;2023-02-20T07:53:34;95290.34;;;22.82;43.52
6393;BME280;3229;42.674;23.282;2023-02-20T07:56:01;95301.81;;;23.00;43.44
6393;BME280;3229;42.674;23.282;2023-02-20T07:58:29;95304.25;;;23.28;42.63
6393;BME280;3229;42.674;23.282;2023-02-20T08:00:56;95303.22;;;23.63;42.20
6393;BME280;3229;42.674;23.282;2023-02-20T08:03:23;95300.34;;;23.97;41.89
6393;BME280;3229;42.674;23.282;2023-02-20T08:05:51;95304.84;;;24.28;41.86
6393;BME280;3229;42.674;23.282;2023-02-20T08:08:18;95298.47;;;24.63;41.51
6393;BME280;3229;42.674;23.282;2023-02-20T08:10:49;95300.06;;;24.95;41.09
6393;BME280;3229;42.674;23.282;2023-02-20T08:13:16;95297.66;;;25.25;40.71
6393;BME280;3229;42.674;23.282;2023-02-20T08:15:43;95301.44;;;25.55;40.48
6393;BME280;3229;42.674;23.282;2023-02-20T08:18:12;95306.88;;;25.78;40.06
6393;BME280;3229;42.674;23.282;2023-02-20T08:20:39;95312.69;;;25.98;40.27
6393;BME280;3229;42.674;23.282;2023-02-20T08:23:15;95314.97;;;26.13;40.13
6393;BME280;3229;42.674;23.282;2023-02-20T08:25:42;95304.50;;;26.13;40.07
6393;BME280;3229;42.674;23.282;2023-02-20T08:28:08;95313.72;;;25.97;39.79
6393;BME280;3229;42.674;23.282;2023-02-20T08:30:35;95318.53;;;25.82;39.83
6393;BME280;3229;42.674;23.282;2023-02-20T08:33:02;95323.19;;;25.55;39.68
6393;BME280;3229;42.674;23.282;2023-02-20T08:35:31;95311.97;;;25.23;39.34
6393;BME280;3229;42.674;23.282;2023-02-20T08:37:59;95302.50;;;24.90;39.32
6393;BME280;3229;42.674;23.282;2023-02-20T08:40:27;95309.97;;;24.55;39.38
6393;BME280;3229;42.674;23.282;2023-02-20T08:42:54;95318.75;;;24.22;38.74
6393;BME280;3229;42.674;23.282;2023-02-20T08:45:21;95305.56;;;23.91;38.79
6393;BME280;3229;42.674;23.282;2023-02-20T08:47:49;95242.59;;;23.21;38.86
6393;BME280;3229;42.674;23.282;2023-02-20T08:50:16;95301.03;;;23.33;38.88
6393;BME280;3229;42.674;23.282;2023-02-20T08:52:43;95307.84;;;23.08;38.79
6393;BME280;3229;42.674;23.282;2023-02-20T08:55:11;95302.38;;;22.83;38.90
6393;BME280;3229;42.674;23.282;2023-02-20T08:57:42;95297.69;;;22.58;38.94
6393;BME280;3229;42.674;23.282;2023-02-20T09:00:10;95295.81;;;22.32;39.05
6393;BME280;3229;42.674;23.282;2023-02-20T09:02:39;95298.38;;;22.12;38.88
6393;BME280;3229;42.674;23.282;2023-02-20T09:05:07;95298.44;;;21.91;38.84
6393;BME280;3229;42.674;23.282;2023-02-20T09:07:34;95297.34;;;21.72;39.26
6393;BME280;3229;42.674;23.282;2023-02-20T09:10:01;95296.44;;;21.51;39.10
6393;BME280;3229;42.674;23.282;2023-02-20T09:12:27;95298.50;;;21.35;39.12
6393;BME280;3229;42.674;23.282;2023-02-20T09:14:56;95297.94;;;21.18;38.86
6393;BME280;3229;42.674;23.282;2023-02-20T09:17:24;95300.44;;;21.04;39.09
6393;BME280;3229;42.674;23.282;2023-02-20T09:19:51;95309.94;;;20.91;39.25
6393;BME280;3229;42.674;23.282;2023-02-20T09:22:21;95302.63;;;20.79;39.22
6393;BME280;3229;42.674;23.282;2023-02-20T09:24:47;95297.50;;;20.65;39.00
6393;BME280;3229;42.674;23.282;2023-02-20T09:27:14;95277.38;;;20.37;39.16
6393;BME280;3229;42.674;23.282;2023-02-20T09:29:41;95281.41;;;20.40;39.10
6393;BME280;3229;42.674;23.282;2023-02-20T09:32:10;95292.66;;;20.25;39.17
6393;BME280;3229;42.674;23.282;2023-02-20T09:34:37;95313.34;;;20.19;39.03
6393;BME280;3229;42.674;23.282;2023-02-20T09:37:04;95291.41;;;20.07;39.31
6393;BME280;3229;42.674;23.282;2023-02-20T09:39:32;95300.47;;;19.96;39.11
6393;BME280;3229;42.674;23.282;2023-02-20T09:42:09;95295.56;;;19.86;39.11
6393;BME280;3229;42.674;23.282;2023-02-20T09:44:45;95298.41;;;19.76;39.21
6393;BME280;3229;42.674;23.282;2023-02-20T09:47:25;95298.50;;;19.68;39.18
6393;BME280;3229;42.674;23.282;2023-02-20T09:49:59;95287.25;;;19.61;39.33
6393;BME280;3229;42.674;23.282;2023-02-20T09:52:28;95293.91;;;19.55;39.49
6393;BME280;3229;42.674;23.282;2023-02-20T09:55:00;95287.44;;;19.51;39.18
6393;BME280;3229;42.674;23.282;2023-02-20T09:57:28;95303.56;;;19.47;39.26
6393;BME280;3229;42.674;23.282;2023-02-20T10:00:00;95290.31;;;19.42;39.37
6393;BME280;3229;42.674;23.282;2023-02-20T10:02:32;95311.59;;;19.37;39.22
6393;BME280;3229;42.674;23.282;2023-02-20T10:05:02;95303.75;;;19.30;39.34
6393;BME280;3229;42.674;23.282;2023-02-20T10:07:32;95303.44;;;19.25;39.38
6393;BME280;3229;42.674;23.282;2023-02-20T10:10:00;95306.41;;;19.22;39.30
6393;BME280;3229;42.674;23.282;2023-02-20T10:12:34;95309.34;;;19.19;39.27
6393;BME280;3229;42.674;23.282;2023-02-20T10:15:13;95285.88;;;19.13;39.22
6393;BME280;3229;42.674;23.282;2023-02-20T10:17:52;95303.41;;;19.11;39.18
6393;BME280;3229;42.674;23.282;2023-02-20T10:20:27;95300.09;;;19.02;38.99
6393;BME280;3229;42.674;23.282;2023-02-20T10:23:00;95286.31;;;19.01;38.92
6393;BME280;3229;42.674;23.282;2023-02-20T10:25:30;95289.25;;;18.98;38.92
6393;BME280;3229;42.674;23.282;2023-02-20T10:28:03;95280.06;;;18.96;39.06
6393;BME280;3229;42.674;23.282;2023-02-20T10:30:34;95277.47;;;18.96;38.97
6393;BME280;3229;42.674;23.282;2023-02-20T10:33:17;95246.69;;;18.93;38.96
6393;BME280;3229;42.674;23.282;2023-02-20T10:35:49;95267.78;;;18.90;38.76
6393;BME280;3229;42.674;23.282;2023-02-20T10:38:22;95255.16;;;18.87;38.77
6393;BME280;3229;42.674;23.282;2023-02-20T10:40:53;95251.75;;;18.86;38.79
6393;BME280;3229;42.674;23.282;2023-02-20T10:43:29;95258.13;;;18.84;38.78
6393;BME280;3229;42.674;23.282;2023-02-20T10:46:04;95253.56;;;18.86;38.68
6393;BME280;3229;42.674;23.282;2023-02-20T10:48:34;95263.78;;;18.87;38.55
6393;BME280;3229;42.674;23.282;2023-02-20T10:51:07;95253.56;;;18.86;38.63
6393;BME280;3229;42.674;23.282;2023-02-20T10:53:39;95255.00;;;18.88;38.56
6393;BME280;3229;42.674;23.282;2023-02-20T10:56:11;95253.56;;;18.86;38.58
6393;BME280;3229;42.674;23.282;2023-02-20T10:58:41;95252.94;;;18.84;38.62
6393;BME280;3229;42.674;23.282;2023-02-20T11:01:13;95260.00;;;18.90;38.72
6393;BME280;3229;42.674;23.282;2023-02-20T11:03:47;95263.41;;;18.90;38.65
6393;BME280;3229;42.674;23.282;2023-02-20T11:06:20;95265.19;;;18.90;38.59
6393;BME280;3229;42.674;23.282;2023-02-20T11:08:48;95255.47;;;18.92;38.71
6393;BME280;3229;42.674;23.282;2023-02-20T11:11:21;95174.00;;;18.48;38.63
6393;BME280;3229;42.674;23.282;2023-02-20T11:13:49;95245.72;;;18.94;38.68
6393;BME280;3229;42.674;23.282;2023-02-20T11:16:23;95237.94;;;18.94;38.39
6393;BME280;3229;42.674;23.282;2023-02-20T11:19:03;95236.78;;;18.96;38.47
6393;BME280;3229;42.674;23.282;2023-02-20T11:21:38;95242.13;;;18.95;38.55
6393;BME280;3229;42.674;23.282;2023-02-20T11:24:32;95246.19;;;18.97;38.59
6393;BME280;3229;42.674;23.282;2023-02-20T11:27:03;95248.75;;;18.97;38.61
6393;BME280;3229;42.674;23.282;2023-02-20T11:29:39;95247.97;;;18.97;38.49
6393;BME280;3229;42.674;23.282;2023-02-20T11:32:27;95235.00;;;18.97;38.51
6393;BME280;3229;42.674;23.282;2023-02-20T11:35:26;95222.63;;;18.84;38.52
6393;BME280;3229;42.674;23.282;2023-02-20T11:38:31;95224.78;;;18.95;38.54
6393;BME280;3229;42.674;23.282;2023-02-20T11:43:43;95206.84;;;18.94;38.62
6393;BME280;3229;42.674;23.282;2023-02-20T11:46:15;95218.00;;;18.94;38.54
6393;BME280;3229;42.674;23.282;2023-02-20T11:49:04;95214.00;;;18.92;38.53
6393;BME280;3229;42.674;23.282;2023-02-20T11:51:35;95220.78;;;18.93;38.45
6393;BME280;3229;42.674;23.282;2023-02-20T11:54:12;95219.00;;;18.93;38.49
6393;BME280;3229;42.674;23.282;2023-02-20T11:56:53;95212.34;;;18.91;38.40
6393;BME280;3229;42.674;23.282;2023-02-20T11:59:36;95212.72;;;18.88;38.50
6393;BME280;3229;42.674;23.282;2023-02-20T12:02:21;95215.13;;;18.89;38.59
6393;BME280;3229;42.674;23.282;2023-02-20T12:05:09;95215.47;;;18.86;38.39
6393;BME280;3229;42.674;23.282;2023-02-20T12:07:43;95216.47;;;18.85;38.25
6393;BME280;3229;42.674;23.282;2023-02-20T12:10:21;95213.06;;;18.85;38.50
6393;BME280;3229;42.674;23.282;2023-02-20T12:12:51;95209.69;;;18.84;38.27
6393;BME280;3229;42.674;23.282;2023-02-20T12:15:21;95198.50;;;18.84;38.45
6393;BME280;3229;42.674;23.282;2023-02-20T12:18:04;95187.22;;;18.76;38.37
6393;BME280;3229;42.674;23.282;2023-02-20T12:20:36;95205.13;;;18.86;38.38
6393;BME280;3229;42.674;23.282;2023-02-20T12:23:19;95210.47;;;18.85;38.45
6393;BME280;3229;42.674;23.282;2023-02-20T12:25:57;95211.63;;;18.82;38.30
6393;BME280;3229;42.674;23.282;2023-02-20T12:28:37;95206.63;;;18.80;38.32
6393;BME280;3229;42.674;23.282;2023-02-20T12:31:19;95199.84;;;18.79;38.35
6393;BME280;3229;42.674;23.282;2023-02-20T12:34:08;95200.84;;;18.78;38.29
6393;BME280;3229;42.674;23.282;2023-02-20T12:36:39;95212.16;;;18.77;38.14
6393;BME280;3229;42.674;23.282;2023-02-20T12:39:22;95202.78;;;18.76;38.24
6393;BME280;3229;42.674;23.282;2023-02-20T12:41:59;95202.78;;;18.76;38.18
6393;BME280;3229;42.674;23.282;2023-02-20T12:44:48;95210.75;;;18.75;38.16
6393;BME280;3229;42.674;23.282;2023-02-20T12:47:28;95212.53;;;18.74;38.25
6393;BME280;3229;42.674;23.282;2023-02-20T12:50:10;95211.06;;;18.72;38.33
6393;BME280;3229;42.674;23.282;2023-02-20T12:52:59;95206.09;;;18.70;38.17
6393;BME280;3229;42.674;23.282;2023-02-20T12:55:35;95209.63;;;18.69;38.29
6393;BME280;3229;42.674;23.282;2023-02-20T12:58:15;95210.78;;;18.67;38.31
6393;BME280;3229;42.674;23.282;2023-02-20T13:00:47;95209.31;;;18.64;38.26
6393;BME280;3229;42.674;23.282;2023-02-20T13:03:19;95198.16;;;18.64;38.17
6393;BME280;3229;42.674;23.282;2023-02-20T13:05:49;95189.78;;;18.62;38.26
6393;BME280;3229;42.674;23.282;2023-02-20T13:08:21;95193.50;;;18.59;38.29
6393;BME280;3229;42.674;23.282;2023-02-20T13:10:56;95196.28;;;18.58;38.14
6393;BME280;3229;42.674;23.282;2023-02-20T13:13:23;95198.41;;;18.54;38.20
6393;BME280;3229;42.674;23.282;2023-02-20T13:15:57;95206.00;;;18.55;38.24
6393;BME280;3229;42.674;23.282;2023-02-20T13:18:33;95204.56;;;18.53;38.16
6393;BME280;3229;42.674;23.282;2023-02-20T13:21:05;95207.50;;;18.50;38.35
6393;BME280;3229;42.674;23.282;2023-02-20T13:23:36;95212.50;;;18.51;38.29
6393;BME280;3229;42.674;23.282;2023-02-20T13:26:45;95228.69;;;18.53;38.34
6393;BME280;3229;42.674;23.282;2023-02-20T13:29:14;95230.28;;;18.54;38.25
6393;BME280;3229;42.674;23.282;2023-02-20T13:31:45;95223.03;;;18.50;38.40
6393;BME280;3229;42.674;23.282;2023-02-20T13:34:32;95221.16;;;18.44;38.46
6393;BME280;3229;42.674;23.282;2023-02-20T13:36:59;95225.88;;;18.40;38.58